Flight Track Log - Related Links

Times and Time Zones

All times are in EDT time to prevent confusion due to time zone crossing. See the SWA4281 flight status page for this flight to view local times or setup timezone preferences in your user account.

Time Position Orientation Groundspeed Altitude Reporting Facility
EDT Latitude Longitude Course Direction KTS MPH feet Rate Location/Type
Sat 05:57:06 PM 30.5397 -81.5975 322° Northwest 224 258 3,900  Level Jacksonville Center
Sat 05:58:01 PM 30.5922 -81.6306 332° Northwest 270 311 5,800 2,931 Climbing Jacksonville Center
Sat 05:59:17 PM 30.6597 -81.6900 323° Northwest 277 319 10,300 3,441 Climbing Jacksonville Center
Sat 06:00:17 PM 30.7397 -81.7614 323° Northwest 310 357 13,600 3,350 Climbing Jacksonville Center
Sat 06:01:17 PM 30.8175 -81.8283 324° Northwest 325 374 17,000 3,100 Climbing Jacksonville Center
Sat 06:02:00 PM 31.0920 -82.1808 322° Northwest  Level Estimated
Sat 06:02:17 PM 30.8953 -81.9047 320° Northwest 353 406 19,800  Level Jacksonville Center
Sat 06:03:17 PM 30.9794 -81.9839 321° Northwest 368 423 22,300 2,500 Climbing Jacksonville Center
Sat 06:04:17 PM 31.0697 -82.0703 321° Northwest 392 451 24,800 2,350 Climbing Jacksonville Center
Sat 06:05:17 PM 31.1581 -82.1544 321° Northwest 404 465 27,000 2,000 Climbing Jacksonville Center
Sat 06:06:17 PM 31.2503 -82.2436 320° Northwest 419 482 28,800 1,700 Climbing Jacksonville Center
Sat 06:07:17 PM 31.3489 -82.3381 321° Northwest 431 496 30,400 1,700 Climbing Jacksonville Center
Sat 06:08:17 PM 31.4475 -82.4250 323° Northwest 442 509 32,200 2,000 Climbing Jacksonville Center
Sat 06:09:17 PM 31.5458 -82.5219 320° Northwest 455 524 34,400 1,950 Climbing Jacksonville Center
Sat 06:10:17 PM 31.6422 -82.6169 320° Northwest 455 524 36,100 1,445 Climbing Jacksonville Center
Sat 06:12:28 PM 31.8361 -82.8033 321° Northwest 448 516 39,000 706 Climbing Atlanta Center
Sat 06:14:32 PM 32.0625 -82.9783 327° Northwest 447 514 39,100 321 Climbing Atlanta Center
Sat 06:15:35 PM 32.1678 -83.0592 327° Northwest 448 516 40,000 432 Climbing Atlanta Center
Sat 06:16:37 PM 32.2714 -83.1406 326° Northwest 449 517 40,000  Level Atlanta Center
Sat 06:17:39 PM 32.3758 -83.2203 327° Northwest 449 517 40,000  Level Atlanta Center
Sat 06:18:41 PM 32.5003 -83.3167 327° Northwest 449 517 40,000  Level Atlanta Center
Sat 06:19:43 PM 32.6033 -83.3944 328° Northwest 444 511 40,000  Level Atlanta Center
Sat 06:20:45 PM 32.7067 -83.4742 327° Northwest 444 511 40,000  Level Atlanta Center
Sat 06:21:47 PM 32.8097 -83.5542 327° Northwest 444 511 40,000  Level Atlanta Center
Sat 06:22:50 PM 32.9131 -83.6328 327° Northwest 443 510 40,000  Level Atlanta Center
Sat 06:23:52 PM 33.0361 -83.7294 327° Northwest 442 509 40,000  Level Atlanta Center
Sat 06:24:54 PM 33.1300 -83.8022 327° Northwest 442 509 40,000  Level Atlanta Center
Sat 06:25:56 PM 33.2331 -83.8822 327° Northwest 443 510 40,000  Level Atlanta Center
Sat 06:26:58 PM 33.3578 -83.9797 327° Northwest 444 511 40,000  Level Atlanta Center
Sat 06:28:00 PM 33.4608 -84.0611 327° Northwest 445 512 40,000  Level Atlanta Center
Sat 06:29:02 PM 33.5650 -84.1431 327° Northwest 447 514 40,000  Level Atlanta Center
Sat 06:30:05 PM 33.6658 -84.2219 327° Northwest 448 516 40,000  Level Atlanta Center
Sat 06:31:07 PM 33.7892 -84.3194 327° Northwest 447 514 40,000  Level Atlanta Center
Sat 06:32:09 PM 33.8925 -84.4031 326° Northwest 449 517 40,000  Level Atlanta Center
Sat 06:33:11 PM 33.9928 -84.4833 326° Northwest 441 507 40,000  Level Atlanta Center
Sat 06:34:13 PM 34.1014 -84.5706 326° Northwest 441 507 40,000 -387 Level Atlanta Center
Sat 06:35:15 PM 34.2003 -84.6450 328° Northwest 463 533 39,200 -919 Descending Atlanta Center
Sat 06:36:17 PM 34.3217 -84.7444 326° Northwest 448 516 38,100 -960 Descending Atlanta Center
Sat 06:37:20 PM 34.4153 -84.8200 326° Northwest 448 516 37,200 -960 Descending Atlanta Center
Sat 06:38:22 PM 34.5417 -84.9228 326° Northwest 457 526 36,100 -968 Descending Atlanta Center
Sat 06:39:24 PM 34.6481 -85.0097 326° Northwest 459 528 35,200 -919 Descending Atlanta Center
Sat 06:40:26 PM 34.7561 -85.0950 327° Northwest 463 533 34,200 -968 Descending Atlanta Center
Sat 06:41:28 PM 34.8650 -85.1778 328° Northwest 461 531 33,200 -1,065 Descending Atlanta Center
Sat 06:42:30 PM 34.9728 -85.2622 327° Northwest 460 529 32,000 -1,935 Descending Atlanta Center
Sat 06:43:32 PM 35.0811 -85.3464 328° Northwest 460 529 29,200 -2,352 Descending Atlanta Center
Sat 06:44:35 PM 35.1814 -85.4336 325° Northwest 445 512 27,100 -2,544 Descending Atlanta Center
Sat 06:45:37 PM 35.2800 -85.5608 314° West 427 491 23,900 -1,984 Descending Atlanta Center
Sat 06:46:39 PM 35.3558 -85.6606 313° West 404 465 23,000 -435 Descending Atlanta Center
Sat 06:47:41 PM 35.3550 -85.7928 270° West 393 452 23,000  Level Atlanta Center
Sat 06:48:45 PM 35.3625 -85.9258 274° West 394 453 23,000  Level Memphis Center
Sat 06:49:47 PM 35.3761 -86.0581 277° West 394 453 23,000  Level Memphis Center
Sat 06:50:48 PM 35.3944 -86.1989 279° West 392 451 23,000 -585 Level Memphis Center
Sat 06:51:50 PM 35.4375 -86.3244 293° West 396 456 21,800 -2,537 Descending Memphis Center
Sat 06:52:51 PM 35.5144 -86.4183 315° West 402 463 17,800 -3,902 Descending Memphis Center
Sat 06:53:53 PM 35.6211 -86.4700 339° North 407 468 13,800 -2,439 Descending Memphis Center
Sat 06:54:54 PM 35.7081 -86.5269 332° Northwest 359 413 12,800 -1,756 Descending Memphis Center
Sat 06:55:56 PM 35.8006 -86.5678 340° North 308 354 10,200 -2,146 Descending Memphis Center
Sat 06:56:57 PM 35.8403 -86.6500 301° West 298 343 8,400 -1,366 Descending Memphis Center
Sat 06:57:59 PM 35.8689 -86.7414 291° West 287 330 7,400 -927 Descending Memphis Center
Sat 06:59:00 PM 35.9178 -86.7564 346° North 236 272 6,500 -1,415 Descending Memphis Center
Sat 07:00:02 PM 35.9625 -86.7264 28° Northeast 193 222 4,500 -1,805 Descending Memphis Center
Sat 07:01:03 PM 36.0089 -86.7092 17° North 177 204 2,800 -1,317 Descending Memphis Center
Sat 07:02:05 PM 36.0489 -86.6933 18° North 159 183 1,800 -732 Descending Memphis Center
Sat 07:03:06 PM 36.0833 -86.6789 19° North 141 162 1,300 -585 Descending Memphis Center
Sat 07:04:08 PM 36.1267 -86.6622 17° North 141 162 600 -677 Descending Memphis Center
Sat 07:06:00 PM 36.1245 -86.6782 260° West  Level Estimated

Login

Don't have an account? Register now (free) for customized features, flight alerts, and more!